sensor_id;sensor_type;location;lat;lon;timestamp;P1;durP1;ratioP1;P2;durP2;ratioP2
59474;SDS011;45288;51.136;16.928;2023-05-14T00:00:29;41.77;;;14.83;;
59474;SDS011;45288;51.136;16.928;2023-05-14T00:02:54;41.20;;;14.85;;
59474;SDS011;45288;51.136;16.928;2023-05-14T00:05:20;52.33;;;16.67;;
59474;SDS011;45288;51.136;16.928;2023-05-14T00:07:45;47.00;;;16.13;;
59474;SDS011;45288;51.136;16.928;2023-05-14T00:10:15;56.37;;;23.67;;
59474;SDS011;45288;51.136;16.928;2023-05-14T00:12:43;64.20;;;56.40;;
59474;SDS011;45288;51.136;16.928;2023-05-14T00:15:10;168.88;;;155.63;;
59474;SDS011;45288;51.136;16.928;2023-05-14T00:17:40;152.25;;;140.48;;
59474;SDS011;45288;51.136;16.928;2023-05-14T00:20:06;568.22;;;527.78;;
59474;SDS011;45288;51.136;16.928;2023-05-14T00:22:34;556.47;;;517.47;;
59474;SDS011;45288;51.136;16.928;2023-05-14T00:25:01;840.10;;;781.57;;
59474;SDS011;45288;51.136;16.928;2023-05-14T00:27:27;916.65;;;853.03;;
59474;SDS011;45288;51.136;16.928;2023-05-14T00:29:52;562.93;;;523.90;;
59474;SDS011;45288;51.136;16.928;2023-05-14T00:32:20;534.25;;;495.85;;
59474;SDS011;45288;51.136;16.928;2023-05-14T00:34:48;369.40;;;344.03;;
59474;SDS011;45288;51.136;16.928;2023-05-14T00:37:13;536.33;;;497.98;;
59474;SDS011;45288;51.136;16.928;2023-05-14T00:39:39;429.98;;;399.58;;
59474;SDS011;45288;51.136;16.928;2023-05-14T00:42:07;350.50;;;325.55;;
59474;SDS011;45288;51.136;16.928;2023-05-14T00:44:34;481.50;;;447.67;;
59474;SDS011;45288;51.136;16.928;2023-05-14T00:47:02;687.03;;;638.90;;
59474;SDS011;45288;51.136;16.928;2023-05-14T00:49:29;745.30;;;694.08;;
59474;SDS011;45288;51.136;16.928;2023-05-14T00:51:55;313.83;;;291.60;;
59474;SDS011;45288;51.136;16.928;2023-05-14T00:54:25;67.05;;;54.03;;
59474;SDS011;45288;51.136;16.928;2023-05-14T00:56:51;57.03;;;41.78;;
59474;SDS011;45288;51.136;16.928;2023-05-14T00:59:19;71.33;;;63.90;;
59474;SDS011;45288;51.136;16.928;2023-05-14T01:01:46;65.05;;;58.10;;
59474;SDS011;45288;51.136;16.928;2023-05-14T01:04:13;69.50;;;58.33;;
59474;SDS011;45288;51.136;16.928;2023-05-14T01:06:56;267.67;;;249.50;;
59474;SDS011;45288;51.136;16.928;2023-05-14T01:12:07;216.93;;;201.43;;
59474;SDS011;45288;51.136;16.928;2023-05-14T01:14:37;204.10;;;189.40;;
59474;SDS011;45288;51.136;16.928;2023-05-14T01:17:07;187.20;;;172.93;;
59474;SDS011;45288;51.136;16.928;2023-05-14T01:19:41;166.18;;;154.02;;
59474;SDS011;45288;51.136;16.928;2023-05-14T01:22:09;163.77;;;151.32;;
59474;SDS011;45288;51.136;16.928;2023-05-14T01:24:38;149.37;;;137.77;;
59474;SDS011;45288;51.136;16.928;2023-05-14T01:27:19;146.30;;;135.15;;
59474;SDS011;45288;51.136;16.928;2023-05-14T01:29:52;161.32;;;149.20;;
59474;SDS011;45288;51.136;16.928;2023-05-14T01:32:19;178.05;;;164.65;;
59474;SDS011;45288;51.136;16.928;2023-05-14T01:34:48;157.73;;;146.30;;
59474;SDS011;45288;51.136;16.928;2023-05-14T01:37:17;92.25;;;84.10;;
59474;SDS011;45288;51.136;16.928;2023-05-14T01:39:44;107.88;;;98.55;;
59474;SDS011;45288;51.136;16.928;2023-05-14T01:42:10;90.82;;;82.60;;
59474;SDS011;45288;51.136;16.928;2023-05-14T01:44:37;80.90;;;73.17;;
59474;SDS011;45288;51.136;16.928;2023-05-14T01:47:07;70.88;;;63.22;;
59474;SDS011;45288;51.136;16.928;2023-05-14T01:49:32;70.23;;;63.20;;
59474;SDS011;45288;51.136;16.928;2023-05-14T01:52:00;71.50;;;53.33;;
59474;SDS011;45288;51.136;16.928;2023-05-14T01:54:27;230.32;;;213.32;;
59474;SDS011;45288;51.136;16.928;2023-05-14T01:56:55;276.25;;;256.30;;
59474;SDS011;45288;51.136;16.928;2023-05-14T01:59:20;210.85;;;194.68;;
59474;SDS011;45288;51.136;16.928;2023-05-14T02:01:48;208.75;;;192.68;;
59474;SDS011;45288;51.136;16.928;2023-05-14T02:04:15;228.10;;;210.80;;
59474;SDS011;45288;51.136;16.928;2023-05-14T02:06:41;225.82;;;209.13;;
59474;SDS011;45288;51.136;16.928;2023-05-14T02:09:07;241.67;;;223.73;;
59474;SDS011;45288;51.136;16.928;2023-05-14T02:11:32;293.98;;;273.38;;
59474;SDS011;45288;51.136;16.928;2023-05-14T02:13:58;310.03;;;288.17;;
59474;SDS011;45288;51.136;16.928;2023-05-14T02:16:27;401.48;;;372.27;;
59474;SDS011;45288;51.136;16.928;2023-05-14T02:18:53;403.85;;;375.63;;
59474;SDS011;45288;51.136;16.928;2023-05-14T02:21:20;331.27;;;307.83;;
59474;SDS011;45288;51.136;16.928;2023-05-14T02:23:48;263.08;;;244.57;;
59474;SDS011;45288;51.136;16.928;2023-05-14T02:26:17;245.70;;;227.95;;
59474;SDS011;45288;51.136;16.928;2023-05-14T02:28:43;239.63;;;222.68;;
59474;SDS011;45288;51.136;16.928;2023-05-14T02:31:11;212.30;;;196.02;;
59474;SDS011;45288;51.136;16.928;2023-05-14T02:33:37;212.93;;;196.80;;
59474;SDS011;45288;51.136;16.928;2023-05-14T02:36:03;154.38;;;142.63;;
59474;SDS011;45288;51.136;16.928;2023-05-14T02:38:28;196.32;;;181.73;;
59474;SDS011;45288;51.136;16.928;2023-05-14T02:40:55;197.95;;;183.02;;
59474;SDS011;45288;51.136;16.928;2023-05-14T02:43:20;202.20;;;186.73;;
59474;SDS011;45288;51.136;16.928;2023-05-14T02:45:46;284.63;;;265.02;;
59474;SDS011;45288;51.136;16.928;2023-05-14T02:48:13;144.63;;;132.73;;
59474;SDS011;45288;51.136;16.928;2023-05-14T02:50:41;579.38;;;538.63;;
59474;SDS011;45288;51.136;16.928;2023-05-14T02:53:09;227.98;;;211.48;;
59474;SDS011;45288;51.136;16.928;2023-05-14T02:55:35;270.73;;;252.07;;
59474;SDS011;45288;51.136;16.928;2023-05-14T02:58:02;399.35;;;370.95;;
59474;SDS011;45288;51.136;16.928;2023-05-14T03:00:30;218.82;;;203.10;;
59474;SDS011;45288;51.136;16.928;2023-05-14T03:02:55;197.73;;;183.00;;
59474;SDS011;45288;51.136;16.928;2023-05-14T03:05:21;506.17;;;470.38;;
59474;SDS011;45288;51.136;16.928;2023-05-14T03:07:47;383.63;;;356.87;;
59474;SDS011;45288;51.136;16.928;2023-05-14T03:10:12;384.00;;;356.00;;
59474;SDS011;45288;51.136;16.928;2023-05-14T03:12:39;375.45;;;349.23;;
59474;SDS011;45288;51.136;16.928;2023-05-14T03:15:06;290.08;;;269.55;;
59474;SDS011;45288;51.136;16.928;2023-05-14T03:17:31;141.43;;;130.70;;
59474;SDS011;45288;51.136;16.928;2023-05-14T03:19:57;143.35;;;132.68;;
59474;SDS011;45288;51.136;16.928;2023-05-14T03:22:23;152.43;;;140.37;;
59474;SDS011;45288;51.136;16.928;2023-05-14T03:24:52;143.77;;;132.60;;
59474;SDS011;45288;51.136;16.928;2023-05-14T03:27:19;137.87;;;127.07;;
59474;SDS011;45288;51.136;16.928;2023-05-14T03:29:47;130.23;;;120.20;;
59474;SDS011;45288;51.136;16.928;2023-05-14T03:32:15;139.13;;;128.27;;
59474;SDS011;45288;51.136;16.928;2023-05-14T03:34:40;143.15;;;132.13;;
59474;SDS011;45288;51.136;16.928;2023-05-14T03:37:09;146.73;;;134.60;;
59474;SDS011;45288;51.136;16.928;2023-05-14T03:39:37;142.75;;;131.93;;
59474;SDS011;45288;51.136;16.928;2023-05-14T03:42:05;137.30;;;126.07;;
59474;SDS011;45288;51.136;16.928;2023-05-14T03:44:33;134.67;;;124.07;;
59474;SDS011;45288;51.136;16.928;2023-05-14T03:46:58;147.40;;;136.10;;
59474;SDS011;45288;51.136;16.928;2023-05-14T03:49:24;158.93;;;145.43;;
59474;SDS011;45288;51.136;16.928;2023-05-14T03:51:51;163.80;;;151.65;;
59474;SDS011;45288;51.136;16.928;2023-05-14T03:54:18;162.73;;;148.98;;
59474;SDS011;45288;51.136;16.928;2023-05-14T03:56:44;171.93;;;158.52;;
59474;SDS011;45288;51.136;16.928;2023-05-14T03:59:12;171.02;;;157.70;;
59474;SDS011;45288;51.136;16.928;2023-05-14T04:01:37;154.65;;;142.85;;
59474;SDS011;45288;51.136;16.928;2023-05-14T04:04:05;156.00;;;144.43;;
59474;SDS011;45288;51.136;16.928;2023-05-14T04:06:32;137.02;;;125.60;;
59474;SDS011;45288;51.136;16.928;2023-05-14T04:09:00;143.40;;;131.27;;
59474;SDS011;45288;51.136;16.928;2023-05-14T04:11:28;134.68;;;122.97;;
59474;SDS011;45288;51.136;16.928;2023-05-14T04:13:55;117.72;;;106.53;;
59474;SDS011;45288;51.136;16.928;2023-05-14T04:16:24;116.80;;;106.82;;
59474;SDS011;45288;51.136;16.928;2023-05-14T04:18:50;111.83;;;102.10;;
59474;SDS011;45288;51.136;16.928;2023-05-14T04:21:15;105.80;;;95.85;;
59474;SDS011;45288;51.136;16.928;2023-05-14T04:23:41;114.47;;;104.07;;
59474;SDS011;45288;51.136;16.928;2023-05-14T04:26:06;119.33;;;108.73;;
59474;SDS011;45288;51.136;16.928;2023-05-14T04:28:35;101.07;;;92.03;;
59474;SDS011;45288;51.136;16.928;2023-05-14T04:31:01;108.75;;;98.68;;
59474;SDS011;45288;51.136;16.928;2023-05-14T04:33:27;84.00;;;74.83;;
59474;SDS011;45288;51.136;16.928;2023-05-14T04:35:54;105.80;;;96.03;;
59474;SDS011;45288;51.136;16.928;2023-05-14T04:38:20;99.15;;;89.53;;
59474;SDS011;45288;51.136;16.928;2023-05-14T04:40:45;107.57;;;97.57;;
59474;SDS011;45288;51.136;16.928;2023-05-14T04:43:11;102.55;;;92.95;;
59474;SDS011;45288;51.136;16.928;2023-05-14T04:45:38;103.60;;;94.28;;
59474;SDS011;45288;51.136;16.928;2023-05-14T04:48:07;110.97;;;100.25;;
59474;SDS011;45288;51.136;16.928;2023-05-14T04:50:33;106.32;;;95.82;;
59474;SDS011;45288;51.136;16.928;2023-05-14T04:52:59;109.30;;;99.03;;
59474;SDS011;45288;51.136;16.928;2023-05-14T04:55:25;109.40;;;98.83;;
59474;SDS011;45288;51.136;16.928;2023-05-14T04:57:50;110.10;;;98.75;;
59474;SDS011;45288;51.136;16.928;2023-05-14T05:00:16;119.72;;;108.80;;
59474;SDS011;45288;51.136;16.928;2023-05-14T05:02:42;122.10;;;110.40;;
59474;SDS011;45288;51.136;16.928;2023-05-14T05:05:08;119.57;;;108.45;;
59474;SDS011;45288;51.136;16.928;2023-05-14T05:07:34;119.38;;;108.00;;
59474;SDS011;45288;51.136;16.928;2023-05-14T05:10:00;109.15;;;98.03;;
59474;SDS011;45288;51.136;16.928;2023-05-14T05:12:26;112.25;;;101.97;;
59474;SDS011;45288;51.136;16.928;2023-05-14T05:14:57;121.95;;;111.78;;
59474;SDS011;45288;51.136;16.928;2023-05-14T05:17:23;101.93;;;92.55;;
59474;SDS011;45288;51.136;16.928;2023-05-14T05:19:49;110.82;;;100.63;;
59474;SDS011;45288;51.136;16.928;2023-05-14T05:22:14;115.87;;;104.70;;
59474;SDS011;45288;51.136;16.928;2023-05-14T05:24:40;111.90;;;101.95;;
59474;SDS011;45288;51.136;16.928;2023-05-14T05:27:05;114.33;;;104.57;;
59474;SDS011;45288;51.136;16.928;2023-05-14T05:29:31;113.85;;;103.70;;
59474;SDS011;45288;51.136;16.928;2023-05-14T05:31:57;100.97;;;91.80;;
59474;SDS011;45288;51.136;16.928;2023-05-14T05:34:22;96.80;;;88.07;;
59474;SDS011;45288;51.136;16.928;2023-05-14T05:36:48;87.43;;;79.18;;
59474;SDS011;45288;51.136;16.928;2023-05-14T05:39:16;79.03;;;70.95;;
59474;SDS011;45288;51.136;16.928;2023-05-14T05:41:43;74.20;;;66.17;;
59474;SDS011;45288;51.136;16.928;2023-05-14T05:44:09;67.50;;;60.05;;
59474;SDS011;45288;51.136;16.928;2023-05-14T05:46:35;64.13;;;46.20;;
59474;SDS011;45288;51.136;16.928;2023-05-14T05:49:00;68.65;;;57.92;;
59474;SDS011;45288;51.136;16.928;2023-05-14T05:51:26;61.50;;;45.43;;
59474;SDS011;45288;51.136;16.928;2023-05-14T05:53:51;60.73;;;47.50;;
59474;SDS011;45288;51.136;16.928;2023-05-14T05:56:17;53.50;;;44.00;;
59474;SDS011;45288;51.136;16.928;2023-05-14T05:58:42;53.70;;;41.40;;
59474;SDS011;45288;51.136;16.928;2023-05-14T06:01:08;59.38;;;37.55;;
59474;SDS011;45288;51.136;16.928;2023-05-14T06:03:34;52.25;;;31.90;;
59474;SDS011;45288;51.136;16.928;2023-05-14T06:05:59;62.50;;;33.67;;
59474;SDS011;45288;51.136;16.928;2023-05-14T06:08:25;65.85;;;28.95;;
59474;SDS011;45288;51.136;16.928;2023-05-14T06:10:51;49.10;;;22.63;;
59474;SDS011;45288;51.136;16.928;2023-05-14T06:13:17;59.17;;;23.02;;
59474;SDS011;45288;51.136;16.928;2023-05-14T06:15:42;56.30;;;23.57;;
59474;SDS011;45288;51.136;16.928;2023-05-14T06:18:10;61.43;;;21.27;;
59474;SDS011;45288;51.136;16.928;2023-05-14T06:20:38;47.35;;;17.02;;
59474;SDS011;45288;51.136;16.928;2023-05-14T06:23:05;59.77;;;19.47;;
59474;SDS011;45288;51.136;16.928;2023-05-14T06:25:32;48.00;;;18.15;;
59474;SDS011;45288;51.136;16.928;2023-05-14T06:27:57;44.43;;;17.00;;
59474;SDS011;45288;51.136;16.928;2023-05-14T06:30:23;52.92;;;19.65;;
59474;SDS011;45288;51.136;16.928;2023-05-14T06:32:49;65.65;;;21.05;;
59474;SDS011;45288;51.136;16.928;2023-05-14T06:35:14;55.23;;;18.37;;
59474;SDS011;45288;51.136;16.928;2023-05-14T06:37:40;50.08;;;19.58;;
59474;SDS011;45288;51.136;16.928;2023-05-14T06:40:06;52.67;;;19.30;;
59474;SDS011;45288;51.136;16.928;2023-05-14T06:42:31;49.78;;;20.63;;
59474;SDS011;45288;51.136;16.928;2023-05-14T06:44:57;47.10;;;17.48;;
59474;SDS011;45288;51.136;16.928;2023-05-14T06:47:23;61.07;;;22.90;;
59474;SDS011;45288;51.136;16.928;2023-05-14T06:49:48;45.85;;;19.67;;
59474;SDS011;45288;51.136;16.928;2023-05-14T06:52:14;55.30;;;20.17;;
59474;SDS011;45288;51.136;16.928;2023-05-14T06:54:39;56.70;;;44.13;;
59474;SDS011;45288;51.136;16.928;2023-05-14T06:57:07;66.15;;;41.72;;
59474;SDS011;45288;51.136;16.928;2023-05-14T06:59:32;43.50;;;16.83;;
59474;SDS011;45288;51.136;16.928;2023-05-14T07:01:58;62.57;;;28.53;;
59474;SDS011;45288;51.136;16.928;2023-05-14T07:04:23;51.05;;;23.88;;
59474;SDS011;45288;51.136;16.928;2023-05-14T07:06:49;50.10;;;22.30;;
59474;SDS011;45288;51.136;16.928;2023-05-14T07:09:15;53.53;;;17.60;;
59474;SDS011;45288;51.136;16.928;2023-05-14T07:11:40;50.03;;;14.07;;
59474;SDS011;45288;51.136;16.928;2023-05-14T07:14:06;44.17;;;13.07;;
59474;SDS011;45288;51.136;16.928;2023-05-14T07:16:31;38.63;;;11.87;;
59474;SDS011;45288;51.136;16.928;2023-05-14T07:18:57;41.73;;;12.87;;
59474;SDS011;45288;51.136;16.928;2023-05-14T07:21:22;56.10;;;16.73;;
59474;SDS011;45288;51.136;16.928;2023-05-14T07:23:48;55.53;;;37.93;;
59474;SDS011;45288;51.136;16.928;2023-05-14T07:26:14;71.80;;;64.03;;
59474;SDS011;45288;51.136;16.928;2023-05-14T07:28:41;68.77;;;61.60;;
59474;SDS011;45288;51.136;16.928;2023-05-14T07:31:07;52.10;;;35.65;;
59474;SDS011;45288;51.136;16.928;2023-05-14T07:33:35;44.63;;;21.13;;
59474;SDS011;45288;51.136;16.928;2023-05-14T07:36:02;46.40;;;20.98;;
59474;SDS011;45288;51.136;16.928;2023-05-14T07:38:30;45.80;;;18.85;;
59474;SDS011;45288;51.136;16.928;2023-05-14T07:40:56;41.70;;;24.67;;
59474;SDS011;45288;51.136;16.928;2023-05-14T07:43:21;47.27;;;27.50;;
59474;SDS011;45288;51.136;16.928;2023-05-14T07:45:49;41.63;;;26.43;;
59474;SDS011;45288;51.136;16.928;2023-05-14T07:48:19;67.63;;;60.28;;
59474;SDS011;45288;51.136;16.928;2023-05-14T07:50:47;56.67;;;50.55;;
59474;SDS011;45288;51.136;16.928;2023-05-14T07:53:13;71.37;;;63.77;;
59474;SDS011;45288;51.136;16.928;2023-05-14T07:55:38;67.45;;;60.15;;
59474;SDS011;45288;51.136;16.928;2023-05-14T07:58:06;67.47;;;45.05;;
59474;SDS011;45288;51.136;16.928;2023-05-14T08:00:34;55.13;;;49.35;;
59474;SDS011;45288;51.136;16.928;2023-05-14T08:03:00;39.47;;;35.30;;
59474;SDS011;45288;51.136;16.928;2023-05-14T08:05:27;61.25;;;55.35;;
59474;SDS011;45288;51.136;16.928;2023-05-14T08:07:53;43.73;;;37.30;;
59474;SDS011;45288;51.136;16.928;2023-05-14T08:10:19;49.13;;;43.93;;
59474;SDS011;45288;51.136;16.928;2023-05-14T08:12:46;55.42;;;50.05;;
59474;SDS011;45288;51.136;16.928;2023-05-14T08:15:12;47.60;;;42.43;;
59474;SDS011;45288;51.136;16.928;2023-05-14T08:17:37;39.00;;;33.63;;
59474;SDS011;45288;51.136;16.928;2023-05-14T08:20:03;48.00;;;42.83;;
59474;SDS011;45288;51.136;16.928;2023-05-14T08:22:33;60.80;;;54.80;;
59474;SDS011;45288;51.136;16.928;2023-05-14T08:25:01;65.32;;;58.83;;
59474;SDS011;45288;51.136;16.928;2023-05-14T08:27:29;60.28;;;54.28;;
59474;SDS011;45288;51.136;16.928;2023-05-14T08:29:54;53.20;;;48.03;;
59474;SDS011;45288;51.136;16.928;2023-05-14T08:32:20;60.43;;;54.83;;
59474;SDS011;45288;51.136;16.928;2023-05-14T08:34:45;59.27;;;53.83;;
59474;SDS011;45288;51.136;16.928;2023-05-14T08:37:11;53.33;;;48.20;;
59474;SDS011;45288;51.136;16.928;2023-05-14T08:39:39;40.05;;;33.80;;
59474;SDS011;45288;51.136;16.928;2023-05-14T08:42:06;50.67;;;44.83;;
59474;SDS011;45288;51.136;16.928;2023-05-14T08:44:38;68.85;;;62.90;;
59474;SDS011;45288;51.136;16.928;2023-05-14T08:47:08;59.08;;;53.47;;
59474;SDS011;45288;51.136;16.928;2023-05-14T08:49:41;49.10;;;44.25;;
59474;SDS011;45288;51.136;16.928;2023-05-14T08:52:10;40.73;;;35.57;;
59474;SDS011;45288;51.136;16.928;2023-05-14T08:54:35;57.70;;;53.17;;
59474;SDS011;45288;51.136;16.928;2023-05-14T08:57:02;62.95;;;56.80;;
59474;SDS011;45288;51.136;16.928;2023-05-14T08:59:27;68.20;;;61.90;;
59474;SDS011;45288;51.136;16.928;2023-05-14T09:01:53;65.93;;;60.23;;
59474;SDS011;45288;51.136;16.928;2023-05-14T09:04:19;73.80;;;67.07;;
59474;SDS011;45288;51.136;16.928;2023-05-14T09:06:50;75.55;;;69.13;;
59474;SDS011;45288;51.136;16.928;2023-05-14T09:09:16;71.80;;;63.97;;
59474;SDS011;45288;51.136;16.928;2023-05-14T09:11:42;72.20;;;66.07;;
59474;SDS011;45288;51.136;16.928;2023-05-14T09:14:08;100.70;;;91.70;;
59474;SDS011;45288;51.136;16.928;2023-05-14T09:16:36;106.30;;;98.15;;
59474;SDS011;45288;51.136;16.928;2023-05-14T09:19:05;83.40;;;76.28;;
59474;SDS011;45288;51.136;16.928;2023-05-14T09:21:31;81.68;;;75.13;;
59474;SDS011;45288;51.136;16.928;2023-05-14T09:23:58;107.57;;;99.30;;
59474;SDS011;45288;51.136;16.928;2023-05-14T09:26:24;131.25;;;121.47;;
59474;SDS011;45288;51.136;16.928;2023-05-14T09:28:56;179.47;;;166.17;;
59474;SDS011;45288;51.136;16.928;2023-05-14T09:31:22;171.98;;;159.35;;
59474;SDS011;45288;51.136;16.928;2023-05-14T09:33:51;324.40;;;300.30;;
59474;SDS011;45288;51.136;16.928;2023-05-14T09:36:19;182.00;;;168.20;;
59474;SDS011;45288;51.136;16.928;2023-05-14T09:38:45;519.97;;;478.95;;
59474;SDS011;45288;51.136;16.928;2023-05-14T09:41:10;324.97;;;300.40;;
59474;SDS011;45288;51.136;16.928;2023-05-14T09:43:36;255.43;;;236.25;;
59474;SDS011;45288;51.136;16.928;2023-05-14T09:46:02;103.05;;;94.13;;
59474;SDS011;45288;51.136;16.928;2023-05-14T09:48:27;101.40;;;92.97;;
59474;SDS011;45288;51.136;16.928;2023-05-14T09:50:54;120.05;;;111.43;;
59474;SDS011;45288;51.136;16.928;2023-05-14T09:53:19;196.33;;;180.57;;
59474;SDS011;45288;51.136;16.928;2023-05-14T09:55:45;203.48;;;188.18;;
59474;SDS011;45288;51.136;16.928;2023-05-14T09:58:11;153.50;;;141.97;;
59474;SDS011;45288;51.136;16.928;2023-05-14T10:00:44;164.70;;;152.00;;
59474;SDS011;45288;51.136;16.928;2023-05-14T10:03:12;244.55;;;225.80;;
59474;SDS011;45288;51.136;16.928;2023-05-14T10:05:38;309.88;;;287.15;;
59474;SDS011;45288;51.136;16.928;2023-05-14T10:10:44;200.60;;;185.88;;
59474;SDS011;45288;51.136;16.928;2023-05-14T10:13:13;177.10;;;163.52;;
59474;SDS011;45288;51.136;16.928;2023-05-14T10:15:45;213.05;;;197.18;;
59474;SDS011;45288;51.136;16.928;2023-05-14T10:18:14;322.27;;;297.20;;
59474;SDS011;45288;51.136;16.928;2023-05-14T10:20:42;336.50;;;310.52;;
59474;SDS011;45288;51.136;16.928;2023-05-14T10:23:08;159.57;;;147.50;;
59474;SDS011;45288;51.136;16.928;2023-05-14T10:25:34;246.30;;;228.23;;
59474;SDS011;45288;51.136;16.928;2023-05-14T10:28:03;233.75;;;215.88;;
59474;SDS011;45288;51.136;16.928;2023-05-14T10:30:32;287.92;;;266.00;;
59474;SDS011;45288;51.136;16.928;2023-05-14T10:33:07;293.23;;;271.17;;
59474;SDS011;45288;51.136;16.928;2023-05-14T10:35:54;266.60;;;246.23;;
59474;SDS011;45288;51.136;16.928;2023-05-14T10:38:21;320.17;;;294.25;;
59474;SDS011;45288;51.136;16.928;2023-05-14T10:40:49;325.15;;;300.05;;
59474;SDS011;45288;51.136;16.928;2023-05-14T10:43:15;345.58;;;318.33;;
59474;SDS011;45288;51.136;16.928;2023-05-14T10:45:42;392.75;;;362.27;;
59474;SDS011;45288;51.136;16.928;2023-05-14T10:48:08;327.92;;;301.90;;
59474;SDS011;45288;51.136;16.928;2023-05-14T10:50:54;217.38;;;201.82;;
59474;SDS011;45288;51.136;16.928;2023-05-14T10:53:28;230.00;;;212.43;;
59474;SDS011;45288;51.136;16.928;2023-05-14T10:55:55;250.60;;;232.30;;
59474;SDS011;45288;51.136;16.928;2023-05-14T10:58:20;182.95;;;168.80;;
59474;SDS011;45288;51.136;16.928;2023-05-14T11:00:46;191.30;;;177.60;;
59474;SDS011;45288;51.136;16.928;2023-05-14T11:03:13;113.65;;;104.55;;
59474;SDS011;45288;51.136;16.928;2023-05-14T11:05:40;166.95;;;154.20;;
59474;SDS011;45288;51.136;16.928;2023-05-14T11:08:07;118.87;;;110.10;;
59474;SDS011;45288;51.136;16.928;2023-05-14T11:10:33;127.10;;;117.32;;
59474;SDS011;45288;51.136;16.928;2023-05-14T11:12:59;138.68;;;127.18;;
59474;SDS011;45288;51.136;16.928;2023-05-14T11:15:25;154.03;;;142.00;;
59474;SDS011;45288;51.136;16.928;2023-05-14T11:17:52;236.70;;;218.85;;
59474;SDS011;45288;51.136;16.928;2023-05-14T11:20:19;140.30;;;129.30;;
59474;SDS011;45288;51.136;16.928;2023-05-14T11:22:45;317.33;;;293.17;;
59474;SDS011;45288;51.136;16.928;2023-05-14T11:25:13;444.77;;;408.88;;
59474;SDS011;45288;51.136;16.928;2023-05-14T11:27:39;292.95;;;270.58;;
59474;SDS011;45288;51.136;16.928;2023-05-14T11:30:17;298.20;;;275.37;;
59474;SDS011;45288;51.136;16.928;2023-05-14T11:32:46;296.65;;;274.35;;
59474;SDS011;45288;51.136;16.928;2023-05-14T11:35:12;286.88;;;264.83;;
59474;SDS011;45288;51.136;16.928;2023-05-14T11:37:38;216.30;;;200.07;;
59474;SDS011;45288;51.136;16.928;2023-05-14T11:40:07;396.88;;;364.95;;
59474;SDS011;45288;51.136;16.928;2023-05-14T11:42:39;410.53;;;377.40;;
59474;SDS011;45288;51.136;16.928;2023-05-14T11:45:05;761.85;;;699.95;;
59474;SDS011;45288;51.136;16.928;2023-05-14T11:47:31;468.85;;;430.42;;
59474;SDS011;45288;51.136;16.928;2023-05-14T11:49:58;693.67;;;637.13;;
59474;SDS011;45288;51.136;16.928;2023-05-14T11:52:25;493.50;;;452.13;;
59474;SDS011;45288;51.136;16.928;2023-05-14T11:54:50;495.67;;;455.33;;
59474;SDS011;45288;51.136;16.928;2023-05-14T11:57:18;601.30;;;551.17;;
59474;SDS011;45288;51.136;16.928;2023-05-14T11:59:47;676.00;;;620.63;;
59474;SDS011;45288;51.136;16.928;2023-05-14T12:02:16;370.25;;;340.60;;
59474;SDS011;45288;51.136;16.928;2023-05-14T12:04:48;554.38;;;508.27;;
59474;SDS011;45288;51.136;16.928;2023-05-14T12:07:15;377.48;;;347.15;;
59474;SDS011;45288;51.136;16.928;2023-05-14T12:09:46;337.60;;;311.02;;
59474;SDS011;45288;51.136;16.928;2023-05-14T12:12:18;373.73;;;343.15;;
59474;SDS011;45288;51.136;16.928;2023-05-14T12:14:47;367.92;;;339.05;;
59474;SDS011;45288;51.136;16.928;2023-05-14T12:17:16;269.20;;;248.23;;
59474;SDS011;45288;51.136;16.928;2023-05-14T12:19:44;287.33;;;265.17;;
59474;SDS011;45288;51.136;16.928;2023-05-14T12:22:19;291.25;;;268.60;;
59474;SDS011;45288;51.136;16.928;2023-05-14T12:24:51;295.55;;;272.38;;
59474;SDS011;45288;51.136;16.928;2023-05-14T12:27:20;313.98;;;288.95;;
59474;SDS011;45288;51.136;16.928;2023-05-14T12:29:49;256.92;;;237.13;;
59474;SDS011;45288;51.136;16.928;2023-05-14T12:32:19;256.58;;;236.13;;
59474;SDS011;45288;51.136;16.928;2023-05-14T12:34:47;251.48;;;231.90;;
59474;SDS011;45288;51.136;16.928;2023-05-14T12:37:14;420.17;;;385.53;;
59474;SDS011;45288;51.136;16.928;2023-05-14T12:39:40;773.28;;;710.22;;
59474;SDS011;45288;51.136;16.928;2023-05-14T12:42:05;802.95;;;737.70;;
59474;SDS011;45288;51.136;16.928;2023-05-14T12:44:33;630.63;;;578.00;;
59474;SDS011;45288;51.136;16.928;2023-05-14T12:47:00;648.63;;;594.65;;
59474;SDS011;45288;51.136;16.928;2023-05-14T12:49:26;797.57;;;732.53;;
59474;SDS011;45288;51.136;16.928;2023-05-14T12:51:53;572.58;;;524.85;;
59474;SDS011;45288;51.136;16.928;2023-05-14T12:54:19;706.40;;;647.90;;
59474;SDS011;45288;51.136;16.928;2023-05-14T12:56:45;537.27;;;492.10;;
59474;SDS011;45288;51.136;16.928;2023-05-14T12:59:14;469.10;;;429.85;;
59474;SDS011;45288;51.136;16.928;2023-05-14T13:01:42;488.73;;;447.90;;
59474;SDS011;45288;51.136;16.928;2023-05-14T13:04:08;560.70;;;513.13;;
59474;SDS011;45288;51.136;16.928;2023-05-14T13:06:38;583.45;;;534.88;;
59474;SDS011;45288;51.136;16.928;2023-05-14T13:09:07;498.20;;;456.35;;
59474;SDS011;45288;51.136;16.928;2023-05-14T13:11:35;416.67;;;382.08;;
59474;SDS011;45288;51.136;16.928;2023-05-14T13:14:00;253.40;;;232.67;;
59474;SDS011;45288;51.136;16.928;2023-05-14T13:16:27;242.20;;;223.25;;
59474;SDS011;45288;51.136;16.928;2023-05-14T13:18:52;244.07;;;225.47;;
59474;SDS011;45288;51.136;16.928;2023-05-14T13:21:22;293.43;;;270.33;;
59474;SDS011;45288;51.136;16.928;2023-05-14T13:23:47;323.00;;;297.55;;
59474;SDS011;45288;51.136;16.928;2023-05-14T13:26:13;487.40;;;447.50;;
59474;SDS011;45288;51.136;16.928;2023-05-14T13:28:43;513.15;;;471.23;;
59474;SDS011;45288;51.136;16.928;2023-05-14T13:31:09;305.13;;;280.83;;
59474;SDS011;45288;51.136;16.928;2023-05-14T13:33:39;233.93;;;215.85;;
59474;SDS011;45288;51.136;16.928;2023-05-14T13:36:07;272.03;;;247.23;;
59474;SDS011;45288;51.136;16.928;2023-05-14T13:38:35;229.32;;;211.85;;
59474;SDS011;45288;51.136;16.928;2023-05-14T13:41:01;210.27;;;193.93;;
59474;SDS011;45288;51.136;16.928;2023-05-14T13:43:29;203.35;;;187.05;;
59474;SDS011;45288;51.136;16.928;2023-05-14T13:45:57;213.65;;;196.10;;
59474;SDS011;45288;51.136;16.928;2023-05-14T13:48:23;209.07;;;192.47;;
59474;SDS011;45288;51.136;16.928;2023-05-14T13:50:53;207.93;;;191.60;;
59474;SDS011;45288;51.136;16.928;2023-05-14T13:53:19;144.82;;;132.55;;
59474;SDS011;45288;51.136;16.928;2023-05-14T13:55:45;147.30;;;135.25;;
59474;SDS011;45288;51.136;16.928;2023-05-14T13:58:14;190.57;;;175.07;;